Airfield :
LOGIN :

Register | Disclaimer

   EN    FR    IT 

 










Legend :    VFR   Marginal VFR   IFR   Intensive IFR   Very Intensive IFR
Visi :
Ceiling :
>= 8 km
>= 3000ft
5 to 8 km
1000 to 3000 ft
1500m to 5 km
500 to 1000 ft
800 to 1500m
200 to 500 ft
< 800m
< 200 ft
Symbols :   Thunderstorms  Fog  Heavy snow  Heavy precipitations  Wind > 20 kt
SIGMETs :     Misc.  Thunderstorms  Icing  Turbulence  Mountain Waves  Volcanic Ashes







- Airport Elevation : 154 ft
- IATA code : SZZ


EPSC - Szczecin Goleniow

CURRENT METAR :
  • 251930Z 11002KT CAVOK 04/03 Q1036

EXPIRED METARs :
  • 251900Z 12002KT CAVOK 04/03 Q1036
  • 251830Z 12002KT CAVOK 05/04 Q1036
  • 251800Z 14002KT 9999 FEW042 06/04 Q1036
  • 251730Z VRB01KT CAVOK 06/05 Q1035
  • 251700Z 30003KT CAVOK 09/05 Q1035
  • 251630Z 29006KT CAVOK 10/02 Q1035

TAF TAF EPSC
Valid from the 25 at 18:00 until the 26 at 18:00 UTC


251730Z 2518/2618 28010KT CAVOK
BECMG 2600/2603 21012KT
TEMPO 2609/2618 22015G25KT
No reported NOTAMs for that airfield.



MET'MAP, your aeronautical weather chart ! - Copyright ORBIFLY December 2007 - Disclaimer

ORBIFLY MET'MAP TEAM :

Programming & Development : Alexandra Zaïnal
Concept & Development : Baudouin d'Aumeries
Co-Development & Prog : Marc-Olivier Méhu
Technical & hardware support : Manuel Goepfert

Contact : metmap@orbifly.com




SOURCES & CREDITS :

   NOAA